Time;durP1;ratioP1;P1;durP2;ratioP2;P2;SDS_P1;SDS_P2;PMS_P1;PMS_P2;Temp;Humidity;BMP_temperature;BMP_pressure;BME280_temperature;BME280_humidity;BME280_pressure;Samples;Min_cycle;Max_cycle;Signal;HPM_P1;HPM_P2
2023/09/28 00:02:53;;;;;;;;;;;;;;;12.10;79.18;100949.97;5111657;27;20055;-68
2023/09/28 00:05:20;;;;;;;0.10;0.10;;;;;;;12.09;78.93;100962.00;5123853;27;19963;-68
2023/09/28 00:07:48;;;;;;;0.10;0.10;;;;;;;12.04;79.23;100954.56;5092698;28;20196;-68
2023/09/28 00:10:17;;;;;;;0.10;0.10;;;;;;;12.04;79.86;100958.13;5109471;27;20116;-68
2023/09/28 00:12:47;;;;;;;0.10;0.10;;;;;;;12.10;79.94;100952.69;5079375;27;20051;-69
2023/09/28 00:15:14;;;;;;;0.10;0.10;;;;;;;12.03;80.77;100959.22;5096767;27;20043;-70
2023/09/28 00:17:41;;;;;;;0.10;0.10;;;;;;;12.01;81.37;100950.41;5095201;27;20047;-69
2023/09/28 00:20:19;;;;;;;0.10;0.10;;;;;;;12.00;81.77;100959.69;5124119;27;20051;-68
2023/09/28 00:22:49;;;;;;;0.10;0.10;;;;;;;12.04;81.53;100954.56;5127259;27;20059;-70
2023/09/28 00:25:17;;;;;;;0.10;0.10;;;;;;;12.00;81.32;100962.41;5124180;27;20043;-68
2023/09/28 00:27:46;;;;;;;0.10;0.10;;;;;;;11.99;81.65;100946.25;5109462;27;20043;-66
2023/09/28 00:30:13;;;;;;;0.10;0.10;;;;;;;11.97;81.95;100960.19;5129689;27;20099;-70
2023/09/28 00:32:43;;;;;;;0.10;0.10;;;;;;;11.98;82.28;100950.06;5131240;27;20052;-69
2023/09/28 00:35:10;;;;;;;0.10;0.10;;;;;;;12.03;81.48;100953.75;5118275;27;20313;-70
2023/09/28 00:37:36;;;;;;;0.13;0.10;;;;;;;12.05;80.97;100950.72;5130717;27;20058;-70
2023/09/28 00:40:37;;;;;;;0.10;0.10;;;;;;;12.05;80.46;100957.06;5125060;27;20051;-70
2023/09/28 00:42:59;;;;;;;0.10;0.10;;;;;;;12.04;80.43;100958.13;5114912;27;20140;-70
2023/09/28 00:45:27;;;;;;;0.10;0.10;;;;;;;11.93;80.75;100948.09;5075870;27;20111;-71
2023/09/28 00:47:56;;;;;;;0.10;0.10;;;;;;;11.93;81.40;100959.06;5108597;27;20155;-69
2023/09/28 00:50:23;;;;;;;0.10;0.10;;;;;;;11.95;81.47;100956.06;5132853;27;20138;-68
2023/09/28 00:52:55;;;;;;;0.10;0.10;;;;;;;11.95;81.09;100953.34;5125185;27;20046;-68
2023/09/28 00:55:23;;;;;;;0.10;0.10;;;;;;;11.94;81.51;100957.97;5130322;27;20091;-68
2023/09/28 00:57:50;;;;;;;0.10;0.10;;;;;;;11.90;81.55;100960.38;5115231;27;20427;-70
2023/09/28 01:00:18;;;;;;;0.10;0.10;;;;;;;11.84;81.53;100944.97;5134241;27;20287;-69
2023/09/28 01:02:50;;;;;;;0.10;0.10;;;;;;;11.88;81.36;100948.03;5129659;27;20303;-68
2023/09/28 01:05:17;;;;;;;0.10;0.10;;;;;;;11.92;80.86;100951.94;5129675;27;20134;-69
2023/09/28 01:07:44;;;;;;;0.10;0.10;;;;;;;11.94;81.22;100943.44;5127420;27;20105;-71
2023/09/28 01:10:14;;;;;;;0.10;0.10;;;;;;;11.91;81.66;100940.13;5122074;27;20046;-68
2023/09/28 01:12:41;;;;;;;0.10;0.10;;;;;;;11.95;81.37;100950.59;5129755;27;20054;-68
2023/09/28 01:15:10;;;;;;;0.10;0.10;;;;;;;11.95;80.78;100951.41;5124613;27;20054;-70
2023/09/28 01:17:39;;;;;;;0.10;0.10;;;;;;;11.92;80.65;100951.94;5127476;27;20139;-70
2023/09/28 01:20:24;;;;;;;0.10;0.10;;;;;;;11.91;80.67;100947.53;5129887;27;20050;-70
2023/09/28 01:22:53;;;;;;;0.10;0.10;;;;;;;11.87;81.60;100949.13;5124898;27;20054;-70
2023/09/28 01:25:20;;;;;;;0.10;0.10;;;;;;;11.90;81.42;100948.63;5129133;27;20048;-70
2023/09/28 01:27:47;;;;;;;0.10;0.10;;;;;;;11.89;80.45;100944.22;5117668;27;20054;-69
2023/09/28 01:30:14;;;;;;;0.10;0.10;;;;;;;11.93;79.81;100939.88;5127966;27;20426;-68
2023/09/28 01:32:42;;;;;;;0.10;0.10;;;;;;;11.93;79.41;100939.88;5087515;27;20043;-68
2023/09/28 01:35:08;;;;;;;0.10;0.10;;;;;;;11.92;79.13;100939.03;5102471;27;20539;-68
2023/09/28 01:37:45;;;;;;;0.10;0.10;;;;;;;11.89;79.29;100936.00;5110142;27;20055;-68
2023/09/28 01:40:13;;;;;;;0.10;0.10;;;;;;;11.84;79.86;100935.91;5099806;28;20071;-68
2023/09/28 01:42:40;;;;;;;0.10;0.10;;;;;;;11.83;80.23;100934.25;5132258;27;20054;-69
2023/09/28 01:45:07;;;;;;;0.10;0.10;;;;;;;11.84;80.48;100941.41;5107143;28;20047;-70
2023/09/28 01:47:34;;;;;;;0.10;0.10;;;;;;;11.82;80.33;100933.44;5126833;27;20104;-69
2023/09/28 01:50:00;;;;;;;0.10;0.10;;;;;;;11.84;80.19;100935.91;5113986;28;20043;-69
2023/09/28 01:52:27;;;;;;;0.10;0.10;;;;;;;11.85;79.59;100934.84;5116383;27;20134;-69
2023/09/28 01:54:53;;;;;;;0.10;0.10;;;;;;;11.85;79.30;100940.31;5106344;28;20054;-70
2023/09/28 01:57:21;;;;;;;0.10;0.10;;;;;;;11.87;79.25;100946.41;5114107;27;20070;-68
2023/09/28 01:59:48;;;;;;;0.10;0.10;;;;;;;11.85;79.48;100943.06;5117945;28;20048;-71
2023/09/28 02:02:16;;;;;;;0.10;0.10;;;;;;;11.83;79.45;100937.84;5121427;27;20059;-71
2023/09/28 02:04:43;;;;;;;0.05;0.05;;;;;;;11.82;79.57;100944.41;5096314;28;20068;-70
2023/09/28 02:07:10;;;;;;;0.10;0.10;;;;;;;11.79;80.08;100947.66;5130372;27;20459;-69
2023/09/28 02:09:36;;;;;;;0.10;0.10;;;;;;;11.82;80.03;100944.41;5125325;27;20569;-67
2023/09/28 02:12:03;;;;;;;0.10;0.10;;;;;;;11.82;80.19;100946.31;5122790;27;20071;-70
2023/09/28 02:14:32;;;;;;;0.10;0.10;;;;;;;11.80;80.54;100943.84;5089930;27;20096;-70
2023/09/28 02:17:00;;;;;;;0.10;0.10;;;;;;;11.76;80.36;100946.25;5133260;27;20474;-68
2023/09/28 02:19:27;;;;;;;0.10;0.10;;;;;;;11.77;80.51;100949.81;5100204;27;20161;-69
2023/09/28 02:21:53;;;;;;;0.10;0.10;;;;;;;11.75;80.99;100947.34;5116563;27;20040;-69
2023/09/28 02:24:20;;;;;;;0.20;0.10;;;;;;;11.75;81.07;100958.31;5105973;27;20050;-69
2023/09/28 02:26:51;;;;;;;0.10;0.10;;;;;;;11.73;81.05;100957.72;5111830;27;20055;-69
2023/09/28 02:29:17;;;;;;;0.10;0.10;;;;;;;11.73;81.06;100946.78;5109040;28;20640;-68
2023/09/28 02:31:45;;;;;;;0.10;0.10;;;;;;;11.73;81.26;100945.94;5129569;27;20389;-70
2023/09/28 02:34:11;;;;;;;;;;;;;;;11.69;81.70;100940.13;5128947;27;20536;-69
2023/09/28 02:36:37;;;;;;;0.10;0.10;;;;;;;11.70;81.30;100941.78;5115080;27;19927;-69
2023/09/28 02:39:07;;;;;;;0.10;0.10;;;;;;;11.72;81.61;100947.84;5123825;27;20063;-69
2023/09/28 02:41:35;;;;;;;0.10;0.10;;;;;;;11.73;82.07;100951.41;5106171;27;20050;-69
2023/09/28 02:44:02;;;;;;;0.10;0.10;;;;;;;11.72;82.41;100955.22;5139420;27;20047;-70
2023/09/28 02:46:28;;;;;;;0.10;0.10;;;;;;;11.69;81.83;100944.78;5127977;27;20054;-70
2023/09/28 02:48:56;;;;;;;0.10;0.10;;;;;;;11.70;81.46;100947.25;5112748;27;20051;-69
2023/09/28 02:51:22;;;;;;;;;;;;;;;11.68;81.93;100943.94;5114923;27;20074;-70
2023/09/28 02:53:48;;;;;;;0.10;0.10;;;;;;;11.66;82.14;100940.63;5096261;27;20298;-69
2023/09/28 02:56:15;;;;;;;0.10;0.10;;;;;;;11.58;82.54;100933.69;5114517;27;20490;-69
2023/09/28 02:58:41;;;;;;;0.10;0.10;;;;;;;11.61;82.65;100946.88;5143993;27;20457;-71
2023/09/28 03:01:08;;;;;;;0.00;0.00;;;;;;;11.61;83.28;100943.31;5099438;27;20051;-71
2023/09/28 03:03:35;;;;;;;0.10;0.10;;;;;;;11.61;83.52;100944.13;5110962;27;20036;-69
2023/09/28 03:06:04;;;;;;;0.15;0.10;;;;;;;11.65;83.28;100938.16;5094451;27;20162;-70
2023/09/28 03:08:31;;;;;;;0.10;0.10;;;;;;;11.66;83.10;100942.56;5111378;27;20039;-68
2023/09/28 03:10:58;;;;;;;0.10;0.10;;;;;;;11.63;83.23;100944.72;5109456;27;20042;-72
2023/09/28 03:13:27;;;;;;;0.10;0.10;;;;;;;11.63;83.23;100947.47;5136587;27;20043;-68
2023/09/28 03:15:54;;;;;;;0.10;0.10;;;;;;;11.58;83.08;100941.91;5125692;27;20046;-69
2023/09/28 03:18:21;;;;;;;0.10;0.10;;;;;;;11.59;83.00;100946.31;5115852;27;20101;-70
2023/09/28 03:20:48;;;;;;;0.10;0.10;;;;;;;11.61;83.42;100949.63;5077813;27;20489;-69
2023/09/28 03:23:15;;;;;;;0.10;0.10;;;;;;;11.52;83.87;100928.41;5134564;27;20050;-69
2023/09/28 03:25:42;;;;;;;0.10;0.10;;;;;;;11.64;83.40;100940.06;5131388;27;20472;-72
2023/09/28 03:28:09;;;;;;;0.10;0.10;;;;;;;11.64;83.07;100937.31;5125215;27;20047;-71
2023/09/28 03:30:35;;;;;;;0.10;0.10;;;;;;;11.68;82.73;100940.41;5134388;27;20054;-71
2023/09/28 03:33:02;;;;;;;0.10;0.10;;;;;;;11.60;82.88;100925.22;5100842;27;20038;-70
2023/09/28 03:35:28;;;;;;;0.10;0.10;;;;;;;11.69;82.60;100940.13;5108248;27;20256;-71
2023/09/28 03:37:57;;;;;;;0.10;0.10;;;;;;;11.73;82.36;100945.94;5105336;27;20064;-71
2023/09/28 03:40:33;;;;;;;0.10;0.10;;;;;;;11.74;82.18;100942.94;5130434;27;20671;-70
2023/09/28 03:43:03;;;;;;;0.10;0.10;;;;;;;11.76;82.71;100940.78;5118942;27;20088;-69
2023/09/28 03:45:29;;;;;;;0.10;0.10;;;;;;;11.83;82.60;100946.06;5096649;27;20536;-71
2023/09/28 03:47:55;;;;;;;0.10;0.10;;;;;;;11.88;82.35;100946.13;5098876;27;20589;-70
2023/09/28 03:50:23;;;;;;;0.10;0.10;;;;;;;11.94;83.05;100951.66;5130731;27;20039;-71
2023/09/28 03:52:50;;;;;;;0.10;0.10;;;;;;;12.01;82.86;100944.91;5130394;27;20492;-72
2023/09/28 03:55:18;;;;;;;0.10;0.10;;;;;;;12.08;82.34;100941.16;5121732;27;20050;-72
2023/09/28 03:57:47;;;;;;;0.10;0.10;;;;;;;12.14;81.19;100942.88;5117587;27;20497;-69
2023/09/28 04:00:15;;;;;;;0.10;0.10;;;;;;;12.13;80.05;100941.22;5134129;27;20042;-70
2023/09/28 04:02:42;;;;;;;0.28;0.10;;;;;;;12.17;79.30;100942.34;5113282;27;20537;-72
2023/09/28 04:05:09;;;;;;;0.10;0.10;;;;;;;12.24;78.60;100948.47;5129105;27;20051;-69
2023/09/28 04:07:36;;;;;;;0.10;0.10;;;;;;;12.27;78.11;100945.22;5090236;27;20058;-69
2023/09/28 04:10:03;;;;;;;0.10;0.10;;;;;;;12.33;78.62;100951.56;5135756;27;20144;-71
2023/09/28 04:12:32;;;;;;;0.10;0.10;;;;;;;12.35;78.05;100952.16;5111244;27;20054;-71
2023/09/28 04:15:00;;;;;;;0.10;0.10;;;;;;;12.38;77.54;100948.88;5093266;27;20134;-69
2023/09/28 04:17:27;;;;;;;0.10;0.10;;;;;;;12.47;76.62;100958.31;5133386;27;20528;-70
2023/09/28 04:19:54;;;;;;;0.10;0.10;;;;;;;12.50;76.69;100946.00;5086503;27;20059;-70
2023/09/28 04:22:20;;;;;;;0.10;0.10;;;;;;;12.55;76.17;100959.75;5129754;27;20061;-69
2023/09/28 04:24:47;;;;;;;0.10;0.10;;;;;;;12.59;75.69;100965.56;5126481;27;20735;-69
2023/09/28 04:27:13;;;;;;;0.13;0.13;;;;;;;12.60;76.04;100962.53;5132381;27;20046;-69
2023/09/28 04:29:39;;;;;;;0.10;0.10;;;;;;;12.65;75.74;100952.72;5129147;27;20055;-69
2023/09/28 04:32:07;;;;;;;0.10;0.10;;;;;;;12.73;75.59;100960.47;5095300;27;20051;-70
2023/09/28 04:34:33;;;;;;;0.10;0.10;;;;;;;12.76;75.33;100952.53;5111623;27;20088;-70
2023/09/28 04:37:00;;;;;;;0.20;0.20;;;;;;;12.80;75.31;100952.84;5111860;27;20084;-71
2023/09/28 04:39:27;;;;;;;0.10;0.10;;;;;;;12.89;75.45;100955.94;5125491;27;20039;-71
2023/09/28 04:41:55;;;;;;;0.10;0.10;;;;;;;12.95;75.78;100962.28;5110135;27;20469;-69
2023/09/28 04:44:23;;;;;;;0.10;0.10;;;;;;;13.01;75.27;100959.31;5088472;27;20134;-71
2023/09/28 04:46:50;;;;;;;0.20;0.20;;;;;;;13.12;74.64;100956.66;5132836;27;20122;-70
2023/09/28 04:49:18;;;;;;;0.10;0.10;;;;;;;13.05;74.65;100935.75;4754390;27;10000467;-71
2023/09/28 04:51:45;;;;;;;0.10;0.10;;;;;;;13.23;74.24;100947.41;5113488;27;20050;-69
2023/09/28 04:54:12;;;;;;;0.10;0.10;;;;;;;13.27;73.75;100950.44;5118438;27;20035;-69
2023/09/28 04:56:40;;;;;;;0.20;0.20;;;;;;;13.28;73.64;100952.09;5090072;27;20044;-70
2023/09/28 04:59:09;;;;;;;0.20;0.20;;;;;;;13.29;73.81;100948.25;5111901;27;20469;-71
2023/09/28 05:01:35;;;;;;;0.13;0.13;;;;;;;13.37;73.22;100947.75;5083550;27;20566;-70
2023/09/28 05:04:02;;;;;;;0.10;0.10;;;;;;;13.43;73.08;100951.34;5121315;27;20099;-69
2023/09/28 05:06:30;;;;;;;0.20;0.20;;;;;;;13.32;73.07;100921.06;5125173;27;20390;-70
2023/09/28 05:08:56;;;;;;;0.10;0.10;;;;;;;13.52;72.64;100936.06;5105841;27;20042;-69
2023/09/28 05:11:22;;;;;;;0.20;0.20;;;;;;;13.58;71.25;100931.38;5103377;27;20509;-70
2023/09/28 05:13:51;;;;;;;0.10;0.10;;;;;;;13.64;71.37;100944.06;5109196;27;20086;-70
2023/09/28 05:16:17;;;;;;;0.20;0.20;;;;;;;13.68;71.34;100955.38;5099159;27;20532;-69
2023/09/28 05:18:43;;;;;;;0.20;0.20;;;;;;;13.80;70.96;100947.72;5124108;27;20059;-69
2023/09/28 05:21:09;;;;;;;0.13;0.13;;;;;;;13.93;70.91;100959.31;5082909;27;20570;-69
2023/09/28 05:23:38;;;;;;;0.20;0.20;;;;;;;14.03;70.83;100957.41;5051410;28;20088;-69
2023/09/28 05:26:05;;;;;;;0.20;0.20;;;;;;;14.13;71.05;100953.06;5048166;28;20457;-69
2023/09/28 05:28:31;;;;;;;0.20;0.20;;;;;;;14.13;70.96;100925.56;5046074;28;20037;-70
2023/09/28 05:30:58;;;;;;;0.20;0.20;;;;;;;14.34;70.54;100948.44;5061294;28;20083;-69
2023/09/28 05:33:24;;;;;;;0.20;0.20;;;;;;;14.41;69.47;100942.66;5043725;28;20436;-69
2023/09/28 05:35:50;;;;;;;0.20;0.20;;;;;;;14.48;69.51;100948.72;5040404;28;20033;-70
2023/09/28 05:38:17;;;;;;;0.20;0.20;;;;;;;14.54;69.64;100952.31;5035666;28;20488;-70
2023/09/28 05:40:45;;;;;;;0.10;0.10;;;;;;;14.59;69.93;100955.06;5038289;28;20051;-70
2023/09/28 05:43:10;;;;;;;;;;;;;;;14.63;69.60;100952.59;5033669;28;20530;-70
2023/09/28 05:45:38;;;;;;;0.20;0.20;;;;;;;14.73;68.99;100949.88;5040693;28;19928;-70
2023/09/28 05:48:04;;;;;;;;;;;;;;;14.83;69.03;100952.66;5045109;28;20076;-67
2023/09/28 05:50:30;;;;;;;0.20;0.20;;;;;;;14.83;68.10;100952.66;5050887;28;19928;-69
2023/09/28 05:52:56;;;;;;;0.30;0.30;;;;;;;14.98;67.51;100962.81;5040020;28;20479;-69
2023/09/28 05:55:25;;;;;;;0.20;0.20;;;;;;;15.21;67.17;100954.25;5048697;28;20075;-68
2023/09/28 05:57:53;;;;;;;0.20;0.20;;;;;;;15.53;66.54;100958.59;5053160;28;20052;-69
2023/09/28 06:00:19;;;;;;;0.20;0.20;;;;;;;15.83;65.30;100956.84;5032031;28;20049;-69
2023/09/28 06:02:45;;;;;;;0.20;0.20;;;;;;;15.97;64.08;100952.41;5038591;28;20055;-69
2023/09/28 06:05:11;;;;;;;0.20;0.20;;;;;;;16.05;63.93;100955.66;5056384;28;20090;-69
2023/09/28 06:07:38;;;;;;;0.22;0.22;;;;;;;16.04;63.33;100960.34;5052919;28;20103;-69
2023/09/28 06:10:08;;;;;;;0.20;0.20;;;;;;;16.06;62.80;100951.78;5037176;28;20114;-69
2023/09/28 06:12:34;;;;;;;0.20;0.20;;;;;;;16.22;63.07;100944.25;5055284;28;20088;-69
2023/09/28 06:15:02;;;;;;;0.28;0.28;;;;;;;16.28;62.42;100949.47;5052773;28;20266;-68
2023/09/28 06:17:32;;;;;;;0.20;0.20;;;;;;;16.26;62.10;100948.94;5053482;28;20144;-69
2023/09/28 06:19:58;;;;;;;0.20;0.20;;;;;;;16.21;62.38;100956.41;5055708;28;20052;-73
2023/09/28 06:22:25;;;;;;;0.20;0.20;;;;;;;16.28;62.03;100959.66;5057418;28;20246;-69
2023/09/28 06:24:52;;;;;;;0.20;0.20;;;;;;;16.41;61.54;100956.28;5065983;28;20067;-69
2023/09/28 06:27:19;;;;;;;0.30;0.30;;;;;;;16.57;60.64;100947.88;5061520;28;20130;-70
2023/09/28 06:29:45;;;;;;;0.30;0.30;;;;;;;16.78;60.02;100933.91;5057688;28;20295;-71
2023/09/28 06:32:14;;;;;;;;;;;;;;;17.04;59.63;100936.47;5051916;28;20041;-70
2023/09/28 06:34:40;;;;;;;0.30;0.30;;;;;;;17.14;58.31;100937.19;5058683;28;19924;-70
2023/09/28 06:37:07;;;;;;;0.20;0.20;;;;;;;17.21;57.70;100941.56;5061651;28;20040;-69
2023/09/28 06:39:33;;;;;;;0.30;0.30;;;;;;;17.48;56.78;100938.22;5060343;28;20041;-70
2023/09/28 06:41:59;;;;;;;0.30;0.30;;;;;;;17.67;55.46;100931.94;5034857;28;20041;-70
2023/09/28 06:44:26;;;;;;;0.30;0.30;;;;;;;18.04;54.91;100933.16;5050012;28;20478;-70
2023/09/28 06:46:53;;;;;;;0.20;0.20;;;;;;;18.19;53.68;100928.53;5051571;28;20515;-68
2023/09/28 06:49:22;;;;;;;0.30;0.30;;;;;;;18.21;52.80;100918.78;5063184;28;20044;-70
2023/09/28 06:51:49;;;;;;;0.30;0.30;;;;;;;18.27;51.98;100916.78;5047547;28;21277;-69
2023/09/28 06:54:16;;;;;;;0.30;0.30;;;;;;;18.25;51.73;100910.72;5051554;28;20047;-69
2023/09/28 06:56:43;;;;;;;0.20;0.20;;;;;;;18.48;51.47;100914.50;5051099;28;20044;-70
2023/09/28 06:59:10;;;;;;;0.30;0.30;;;;;;;18.66;51.32;100912.00;5060239;28;20397;-69
2023/09/28 07:01:37;;;;;;;;;;;;;;;19.10;51.66;100919.03;5070983;28;20729;-69
2023/09/28 07:04:04;;;;;;;0.30;0.30;;;;;;;19.39;49.77;100901.28;5042586;28;19952;-69
2023/09/28 07:06:33;;;;;;;0.30;0.30;;;;;;;19.62;49.33;100895.81;5069974;28;20089;-69
2023/09/28 07:09:00;;;;;;;0.30;0.30;;;;;;;20.00;48.82;100896.72;5048763;28;20056;-70
2023/09/28 07:11:26;;;;;;;0.30;0.30;;;;;;;20.07;48.02;100863.81;5063943;28;20060;-70
2023/09/28 07:13:53;;;;;;;0.30;0.30;;;;;;;20.10;47.00;100879.81;5070261;28;20044;-68
2023/09/28 07:16:19;;;;;;;0.30;0.30;;;;;;;19.80;46.52;100888.50;5069096;28;20135;-69
2023/09/28 07:18:50;;;;;;;0.30;0.30;;;;;;;19.52;47.41;100888.53;5063771;28;20045;-70
2023/09/28 07:21:19;;;;;;;0.30;0.30;;;;;;;19.77;47.12;100879.97;5063557;28;20057;-69
2023/09/28 07:23:47;;;;;;;0.30;0.30;;;;;;;20.23;46.66;100880.94;5037132;28;20064;-68
2023/09/28 07:26:17;;;;;;;0.30;0.30;;;;;;;20.80;46.14;100879.50;5051362;28;20037;-69
2023/09/28 07:28:46;;;;;;;0.30;0.30;;;;;;;21.33;44.70;100894.50;5058471;28;20090;-69
2023/09/28 07:31:15;;;;;;;0.30;0.30;;;;;;;20.92;43.91;100865.06;5064622;28;20068;-69
2023/09/28 07:33:43;;;;;;;0.30;0.30;;;;;;;21.11;44.31;100887.03;5052187;28;20045;-69
2023/09/28 07:36:11;;;;;;;0.30;0.30;;;;;;;21.14;43.79;100888.38;5046694;28;20070;-69
2023/09/28 07:38:37;;;;;;;0.30;0.30;;;;;;;21.15;43.52;100895.56;5070438;28;20040;-70
2023/09/28 07:41:07;;;;;;;0.30;0.30;;;;;;;21.29;43.15;100892.69;5067458;28;20515;-69
2023/09/28 07:43:34;;;;;;;0.30;0.30;;;;;;;21.29;43.06;100893.50;5066061;28;20106;-70
2023/09/28 07:46:01;;;;;;;0.30;0.30;;;;;;;21.32;43.06;100880.94;5058739;28;20044;-69
2023/09/28 07:48:27;;;;;;;0.40;0.40;;;;;;;21.60;42.86;100883.44;5065851;28;20036;-69
2023/09/28 07:50:53;;;;;;;0.40;0.40;;;;;;;21.68;41.87;100879.91;5059635;28;20055;-69
2023/09/28 07:53:20;;;;;;;0.40;0.40;;;;;;;21.78;41.73;100879.59;5069650;28;20045;-69
2023/09/28 07:55:46;;;;;;;0.35;0.35;;;;;;;21.75;41.63;100865.53;5047848;28;20094;-70
2023/09/28 07:58:15;;;;;;;0.30;0.30;;;;;;;21.70;41.88;100871.22;5054177;28;20045;-70
2023/09/28 08:00:42;;;;;;;0.40;0.40;;;;;;;22.02;41.49;100877.50;5051261;28;20068;-69
2023/09/28 08:03:08;;;;;;;0.30;0.30;;;;;;;22.18;40.58;100887.00;5067259;28;20041;-69
2023/09/28 08:05:34;;;;;;;0.40;0.40;;;;;;;22.12;41.09;100871.59;5066364;28;20047;-69
2023/09/28 08:08:01;;;;;;;0.40;0.40;;;;;;;22.12;40.74;100868.81;5068439;28;20053;-69
2023/09/28 08:10:27;;;;;;;0.32;0.32;;;;;;;22.26;40.48;100868.66;5060726;28;20401;-69
2023/09/28 08:12:53;;;;;;;0.40;0.40;;;;;;;22.24;40.19;100868.97;5047896;28;20144;-69
2023/09/28 08:15:22;;;;;;;0.30;0.30;;;;;;;22.18;40.88;100870.31;5053549;28;20393;-68
2023/09/28 08:17:48;;;;;;;0.40;0.40;;;;;;;22.36;40.28;100856.34;5052928;28;20111;-68
2023/09/28 08:20:16;;;;;;;0.30;0.30;;;;;;;22.65;40.39;100868.78;5050847;28;20558;-69
2023/09/28 08:22:42;;;;;;;0.40;0.40;;;;;;;22.74;39.48;100858.44;5063039;28;20531;-69
2023/09/28 08:25:09;;;;;;;0.30;0.30;;;;;;;23.17;39.85;100855.81;5067854;28;20067;-69
2023/09/28 08:27:35;;;;;;;;;;;;;;;23.79;39.04;100850.72;5065996;28;20460;-70
2023/09/28 08:30:02;;;;;;;0.40;0.40;;;;;;;24.11;37.59;100851.16;5060295;28;19928;-70
2023/09/28 08:32:33;;;;;;;0.30;0.30;;;;;;;24.33;36.89;100849.97;5062846;28;20049;-69
2023/09/28 08:34:59;;;;;;;0.32;0.32;;;;;;;24.24;37.01;100845.63;5066853;28;20650;-69
2023/09/28 08:37:25;;;;;;;0.40;0.40;;;;;;;24.54;37.03;100842.69;5068211;28;20060;-69
2023/09/28 08:39:52;;;;;;;0.40;0.40;;;;;;;24.48;37.16;100834.50;5054741;28;20057;-70
2023/09/28 08:42:23;;;;;;;;;;;;;;;24.74;37.64;100833.41;5043414;28;20040;-69
2023/09/28 08:44:57;;;;;;;0.40;0.40;;;;;;;24.73;35.93;100842.13;5048392;28;19925;-69
2023/09/28 08:47:24;;;;;;;0.40;0.40;;;;;;;24.35;36.26;100835.63;5048100;28;20364;-68
2023/09/28 08:49:54;;;;;;;0.40;0.40;;;;;;;24.24;36.87;100828.88;5048756;28;20106;-68
2023/09/28 08:52:22;;;;;;;0.40;0.40;;;;;;;24.36;36.73;100828.91;5050205;28;20144;-69
2023/09/28 08:54:50;;;;;;;0.40;0.40;;;;;;;24.01;37.64;100829.19;5059471;28;20045;-68
2023/09/28 08:57:17;;;;;;;0.40;0.40;;;;;;;23.77;38.41;100823.13;5046200;28;20080;-69
2023/09/28 08:59:44;;;;;;;0.40;0.40;;;;;;;23.84;38.23;100819.00;5059930;28;20051;-69
2023/09/28 09:02:13;;;;;;;0.40;0.40;;;;;;;24.15;37.91;100824.16;5047283;28;20123;-68
2023/09/28 09:04:41;;;;;;;0.50;0.50;;;;;;;24.47;37.87;100818.09;5048025;28;20029;-69
2023/09/28 09:07:09;;;;;;;0.40;0.40;;;;;;;24.43;36.75;100817.97;5046751;28;20062;-72
2023/09/28 09:09:40;;;;;;;0.50;0.50;;;;;;;24.23;37.02;100790.91;5060261;28;20052;-68
2023/09/28 09:12:10;;;;;;;0.50;0.50;;;;;;;24.20;37.12;100807.22;5062753;28;20075;-67
2023/09/28 09:14:40;;;;;;;0.50;0.50;;;;;;;23.85;36.93;100809.47;5067567;28;20064;-69
2023/09/28 09:17:08;;;;;;;0.43;0.43;;;;;;;23.73;37.02;100811.03;5065564;28;20041;-69
2023/09/28 09:19:35;;;;;;;0.50;0.50;;;;;;;23.69;38.03;100798.91;5067479;28;20064;-69
2023/09/28 09:22:04;;;;;;;0.50;0.50;;;;;;;23.92;37.51;100804.13;5052667;28;20496;-69
2023/09/28 09:24:32;;;;;;;0.50;0.50;;;;;;;24.03;37.36;100812.94;5048910;28;20535;-69
2023/09/28 09:26:59;;;;;;;0.50;0.50;;;;;;;23.82;36.78;100798.97;5046681;28;20066;-69
2023/09/28 09:29:27;;;;;;;0.50;0.50;;;;;;;23.76;37.33;100790.78;5045462;28;20049;-70
2023/09/28 09:31:53;;;;;;;0.55;0.55;;;;;;;24.07;37.19;100791.56;5045858;28;20047;-70
2023/09/28 09:34:21;;;;;;;0.50;0.50;;;;;;;24.39;36.76;100794.69;5046526;28;20110;-68
2023/09/28 09:36:55;;;;;;;0.50;0.50;;;;;;;24.56;36.52;100795.66;5045667;28;20053;-69
2023/09/28 09:39:25;;;;;;;0.50;0.50;;;;;;;24.85;35.67;100774.28;5066404;28;20049;-70
2023/09/28 09:41:54;;;;;;;0.60;0.60;;;;;;;25.41;35.17;100781.22;5064856;28;20059;-69
2023/09/28 09:44:21;;;;;;;0.60;0.60;;;;;;;25.87;34.32;100798.63;5046290;28;20045;-69
2023/09/28 09:46:50;;;;;;;0.57;0.57;;;;;;;26.13;33.23;100782.53;5044881;28;20106;-69
2023/09/28 09:49:18;;;;;;;0.50;0.50;;;;;;;26.36;33.16;100779.97;5055267;28;20530;-69
2023/09/28 09:51:46;;;;;;;0.60;0.60;;;;;;;26.81;32.33;100782.72;5052032;28;20562;-70
2023/09/28 09:54:14;;;;;;;0.60;0.60;;;;;;;27.11;32.14;100771.88;5061495;28;20052;-68
2023/09/28 09:56:43;;;;;;;0.52;0.52;;;;;;;26.99;31.07;100750.31;5070213;28;20133;-70
2023/09/28 09:59:13;;;;;;;0.60;0.60;;;;;;;27.35;31.03;100769.97;5044763;28;20114;-69
2023/09/28 10:01:42;;;;;;;0.50;0.50;;;;;;;27.68;30.05;100743.44;5049294;28;20103;-68
2023/09/28 10:04:12;;;;;;;0.60;0.60;;;;;;;28.04;29.79;100748.97;5058840;28;20052;-70
2023/09/28 10:06:44;;;;;;;0.50;0.50;;;;;;;28.11;29.56;100751.91;5053615;28;20419;-69
2023/09/28 10:09:11;;;;;;;0.60;0.60;;;;;;;27.86;29.21;100760.66;5062502;28;20049;-69
2023/09/28 10:11:40;;;;;;;0.50;0.50;;;;;;;27.45;29.77;100752.56;5050149;28;20073;-68
2023/09/28 10:14:10;;;;;;;0.60;0.60;;;;;;;27.50;29.91;100761.88;5051918;28;20136;-68
2023/09/28 10:16:41;;;;;;;0.50;0.50;;;;;;;27.83;28.95;100750.19;5070525;28;20530;-69
2023/09/28 10:19:10;;;;;;;0.60;0.60;;;;;;;28.30;28.79;100761.53;5069875;28;20049;-70
2023/09/28 10:21:37;;;;;;;0.50;0.50;;;;;;;28.82;28.49;100752.78;5058253;28;20068;-69
2023/09/28 10:24:12;;;;;;;0.60;0.60;;;;;;;29.37;27.64;100743.94;5052404;28;20052;-70
2023/09/28 10:26:42;;;;;;;0.50;0.50;;;;;;;29.53;27.37;100745.78;5068018;28;20139;-69
2023/09/28 10:29:12;;;;;;;0.60;0.60;;;;;;;29.53;27.20;100749.41;5041516;28;20072;-68
2023/09/28 10:31:42;;;;;;;0.50;0.50;;;;;;;30.02;26.39;100745.94;5056287;28;20064;-69
2023/09/28 10:34:16;;;;;;;0.50;0.50;;;;;;;30.29;25.86;100741.03;5071065;28;20106;-70
2023/09/28 10:36:42;;;;;;;0.50;0.50;;;;;;;29.49;26.16;100733.66;5070007;28;20052;-70
2023/09/28 10:39:17;;;;;;;0.60;0.60;;;;;;;29.35;26.46;100734.22;5064015;28;20047;-68
2023/09/28 10:41:47;;;;;;;0.70;0.70;;;;;;;30.04;25.94;100732.28;5062397;28;20558;-68
2023/09/28 10:44:16;;;;;;;0.70;0.70;;;;;;;30.81;24.97;100726.16;5068294;28;20045;-69
2023/09/28 10:46:45;;;;;;;0.70;0.70;;;;;;;30.94;25.53;100730.28;5066906;28;20502;-69
2023/09/28 10:49:14;;;;;;;0.75;0.75;;;;;;;31.27;24.34;100725.66;5064276;28;20045;-68
2023/09/28 10:51:42;;;;;;;0.80;0.80;;;;;;;30.34;25.84;100712.47;5048361;28;20423;-69
2023/09/28 10:54:10;;;;;;;0.80;0.80;;;;;;;30.13;25.86;100730.81;5051984;28;20040;-68
2023/09/28 10:56:37;;;;;;;0.70;0.70;;;;;;;30.06;26.01;100735.56;5069404;28;20139;-70
2023/09/28 10:59:05;;;;;;;0.90;0.90;;;;;;;29.93;26.12;100718.06;5066027;28;20440;-69
2023/09/28 11:01:32;;;;;;;0.90;0.90;;;;;;;30.21;25.38;100722.41;5043078;28;20057;-69
2023/09/28 11:04:00;;;;;;;0.90;0.90;;;;;;;29.78;26.31;100711.47;5067299;28;20063;-69
2023/09/28 11:06:27;;;;;;;0.90;0.90;;;;;;;30.22;26.22;100701.47;5047414;28;20416;-69
2023/09/28 11:08:57;;;;;;;0.93;0.93;;;;;;;30.64;25.29;100705.88;5044563;28;20075;-68
2023/09/28 11:11:23;;;;;;;0.90;0.90;;;;;;;30.48;24.73;100725.06;5048481;28;20136;-68
2023/09/28 11:13:50;;;;;;;1.00;1.00;;;;;;;29.81;25.03;100702.25;5056741;28;20135;-70
2023/09/28 11:16:17;;;;;;;;;;;;;;;29.32;26.16;100699.22;5065892;28;20040;-69
2023/09/28 11:18:43;;;;;;;1.00;1.00;;;;;;;29.42;25.69;100700.59;5081335;28;19928;-67
2023/09/28 11:21:12;;;;;;;1.00;1.00;;;;;;;29.28;25.70;100698.38;5048259;28;20427;-68
2023/09/28 11:23:40;;;;;;;1.05;1.05;;;;;;;29.28;25.69;100704.78;5045498;28;20072;-68
2023/09/28 11:26:08;;;;;;;1.10;1.10;;;;;;;28.94;25.47;100713.19;5050432;28;20045;-68
2023/09/28 11:28:34;;;;;;;1.00;1.00;;;;;;;28.68;25.67;100689.44;5061296;28;20110;-69
2023/09/28 11:31:07;;;;;;;1.10;1.10;;;;;;;28.42;25.74;100687.41;5061655;28;20079;-69